Time;durP1;ratioP1;P1;durP2;ratioP2;P2;SDS_P1;SDS_P2;PMS_P1;PMS_P2;Temp;Humidity;BMP_temperature;BMP_pressure;BME280_temperature;BME280_humidity;BME280_pressure;Samples;Min_cycle;Max_cycle;Signal;HPM_P1;HPM_P2
2022/06/30 00:02:27;;;;;;;14.90;11.80;;;18.40;99.90;;;18.79;100.00;99388.00;5061359;27;118917;-70
2022/06/30 00:04:55;;;;;;;13.07;11.32;;;18.50;99.90;;;18.80;100.00;99381.34;5061681;27;116243;-72
2022/06/30 00:07:24;;;;;;;14.68;12.77;;;18.50;99.90;;;18.74;100.00;99380.06;5062777;27;130110;-71
2022/06/30 00:09:52;;;;;;;13.82;11.75;;;18.40;99.90;;;18.80;100.00;99378.59;5060983;27;130051;-73
2022/06/30 00:12:20;;;;;;;14.25;12.75;;;18.40;99.90;;;18.78;100.00;99378.19;5061643;27;119148;-75
2022/06/30 00:14:50;;;;;;;18.35;13.13;;;18.40;99.90;;;18.82;100.00;99385.31;5061704;27;115719;-75
2022/06/30 00:17:19;;;;;;;14.02;12.00;;;18.40;99.90;;;18.83;100.00;99383.34;5060877;27;130452;-75
2022/06/30 00:19:48;;;;;;;16.58;13.95;;;18.30;99.90;;;18.78;100.00;99380.94;5062825;27;128785;-72
2022/06/30 00:22:16;;;;;;;15.88;13.50;;;18.30;99.90;;;18.74;100.00;99374.56;5061172;27;118926;-74
2022/06/30 00:24:45;;;;;;;18.02;14.30;;;18.30;99.90;;;18.67;100.00;99367.81;5063130;27;114931;-75
2022/06/30 00:27:14;;;;;;;17.33;15.18;;;18.30;99.90;;;18.67;100.00;99367.03;5059509;27;129986;-75
2022/06/30 00:29:43;;;;;;;16.70;14.25;;;18.30;99.90;;;18.68;100.00;99365.84;5062619;27;129292;-74
2022/06/30 00:32:12;;;;;;;18.42;13.77;;;18.20;99.90;;;18.68;100.00;99371.34;5061046;27;119377;-73
2022/06/30 00:34:41;;;;;;;16.10;13.68;;;18.20;99.90;;;18.69;100.00;99367.44;5060059;27;116176;-74
2022/06/30 00:37:09;;;;;;;16.65;13.70;;;18.20;99.90;;;18.71;100.00;99358.81;5059160;27;130368;-72
2022/06/30 00:39:38;;;;;;;16.95;14.32;;;18.20;99.90;;;18.65;100.00;99361.88;5060232;27;129729;-74
2022/06/30 00:42:07;;;;;;;18.38;14.63;;;18.10;99.90;;;18.62;100.00;99370.88;5059442;27;118809;-70
2022/06/30 00:44:36;;;;;;;14.55;13.00;;;18.10;99.90;;;18.58;100.00;99372.75;5060883;27;116242;-72
2022/06/30 00:47:06;;;;;;;16.15;14.02;;;18.10;99.90;;;18.55;100.00;99372.72;5060559;27;129884;-74
2022/06/30 00:49:36;;;;;;;17.75;14.70;;;18.10;99.90;;;18.49;100.00;99377.72;5060404;27;130220;-74
2022/06/30 00:52:07;;;;;;;17.45;14.65;;;18.10;99.90;;;18.46;100.00;99381.97;5060732;27;119902;-73
2022/06/30 00:54:37;;;;;;;16.95;14.48;;;18.10;99.90;;;18.45;100.00;99385.09;5060823;27;116662;-73
2022/06/30 00:57:08;;;;;;;18.17;14.75;;;18.00;99.90;;;18.42;100.00;99380.38;5064285;27;130078;-73
2022/06/30 00:59:39;;;;;;;15.45;13.85;;;18.00;99.90;;;18.31;100.00;99386.47;5063809;27;129984;-72
2022/06/30 01:02:09;;;;;;;17.88;14.52;;;17.90;99.90;;;18.26;100.00;99386.78;5063985;27;119000;-74
2022/06/30 01:04:40;;;;;;;17.90;15.98;;;17.90;99.90;;;18.22;100.00;99388.66;5064173;27;116246;-72
2022/06/30 01:07:10;;;;;;;17.05;13.93;;;17.80;99.90;;;18.19;100.00;99383.88;5065712;27;129572;-74
2022/06/30 01:15:12;;;;;;;18.40;15.32;;;17.70;99.90;;;18.21;100.00;99381.56;5064238;27;115629;-74
2022/06/30 01:17:42;;;;;;;16.25;14.55;;;17.70;99.90;;;18.22;100.00;99377.66;5062332;27;130550;-74
2022/06/30 01:20:13;;;;;;;19.38;15.07;;;17.70;99.90;;;18.24;100.00;99380.06;5063730;27;130675;-73
2022/06/30 01:22:44;;;;;;;17.15;14.88;;;17.70;99.90;;;18.21;100.00;99384.31;5064282;27;118802;-73
2022/06/30 01:25:13;;;;;;;17.13;14.93;;;17.70;99.90;;;18.16;100.00;99379.13;5064091;27;115970;-75
2022/06/30 01:27:42;;;;;;;18.83;14.13;;;17.70;99.90;;;18.13;100.00;99379.84;5065403;27;129544;-74
2022/06/30 01:30:12;;;;;;;19.17;15.18;;;17.70;99.90;;;18.05;100.00;99394.63;5065590;27;128770;-75
2022/06/30 01:32:41;;;;;;;18.83;15.25;;;17.60;99.90;;;17.94;100.00;99389.72;5062686;27;119081;-74
2022/06/30 01:35:10;;;;;;;16.88;14.13;;;17.60;99.90;;;17.91;100.00;99387.69;5062679;27;115943;-74
2022/06/30 01:37:50;;;;;;;17.25;15.43;;;17.60;99.90;;;17.94;100.00;99389.72;5063159;27;130688;-74
2022/06/30 01:40:19;;;;;;;17.17;14.93;;;17.60;99.90;;;17.99;100.00;99382.34;5064959;27;129310;-75
2022/06/30 01:42:48;;;;;;;17.70;15.43;;;17.60;99.90;;;18.01;100.00;99383.56;5065793;27;117581;-75
2022/06/30 01:45:17;;;;;;;19.17;15.65;;;17.50;99.90;;;18.03;100.00;99385.94;5063718;27;115962;-73
2022/06/30 01:47:46;;;;;;;16.83;15.00;;;17.60;99.90;;;18.05;100.00;99383.66;5065068;27;130282;-74
2022/06/30 01:50:17;;;;;;;18.33;15.55;;;17.60;99.90;;;18.07;100.00;99393.09;5063127;27;129373;-75
2022/06/30 01:52:48;;;;;;;16.25;14.25;;;17.60;99.90;;;18.10;100.00;99391.56;5063491;27;120087;-74
2022/06/30 01:55:17;;;;;;;16.77;14.70;;;17.60;99.90;;;18.10;100.00;99392.34;5063401;27;117427;-75
2022/06/30 01:57:46;;;;;;;15.32;13.30;;;17.60;99.90;;;18.05;100.00;99395.41;5064031;27;130488;-74
2022/06/30 02:00:17;;;;;;;16.77;13.98;;;17.60;99.90;;;17.98;100.00;99394.50;5064692;27;128985;-75
2022/06/30 02:02:48;;;;;;;16.63;14.82;;;17.50;99.90;;;17.94;100.00;99389.72;5063226;27;118920;-74
2022/06/30 02:05:18;;;;;;;17.08;14.73;;;17.50;99.90;;;17.90;100.00;99388.88;5063340;27;115748;-75
2022/06/30 02:07:48;;;;;;;16.88;14.77;;;17.50;99.90;;;17.88;100.00;99391.16;5062428;27;130247;-75
2022/06/30 02:10:20;;;;;;;17.50;14.48;;;17.50;99.90;;;17.95;100.00;99391.31;5065077;27;128445;-75
2022/06/30 02:12:51;;;;;;;16.88;15.13;;;17.50;99.90;;;18.05;100.00;99394.63;5063052;27;119383;-74
2022/06/30 02:15:23;;;;;;;16.98;14.32;;;17.50;99.90;;;18.13;100.00;99396.34;5058291;27;115549;-74
2022/06/30 02:17:54;;;;;;;16.40;14.65;;;17.60;99.90;;;18.18;100.00;99392.50;5040631;27;129945;-75
2022/06/30 02:20:24;;;;;;;15.80;14.10;;;17.60;99.90;;;18.20;100.00;99395.66;5043924;27;129664;-75
2022/06/30 02:22:56;;;;;;;18.73;15.45;;;17.70;99.90;;;18.27;100.00;99388.34;5042660;27;118974;-74
2022/06/30 02:25:27;;;;;;;17.85;14.30;;;17.70;99.90;;;18.37;100.00;99389.72;5042419;27;116196;-74
2022/06/30 02:27:56;;;;;;;17.17;14.55;;;17.70;99.90;;;18.45;100.00;99390.59;5042002;27;130018;-74
2022/06/30 02:30:24;;;;;;;15.20;13.60;;;17.80;99.90;;;18.48;100.00;99395.34;5042115;27;130314;-74
2022/06/30 02:32:53;;;;;;;17.20;13.82;;;17.80;99.90;;;18.46;100.00;99387.47;5044477;27;117906;-74
2022/06/30 02:35:22;;;;;;;17.13;14.57;;;17.80;99.90;;;18.44;100.00;99411.00;5044527;27;115400;-73
2022/06/30 02:37:51;;;;;;;19.58;15.50;;;17.80;99.90;;;18.39;100.00;99403.84;5040641;27;130728;-74
2022/06/30 02:40:21;;;;;;;18.83;14.85;;;17.70;99.90;;;18.40;100.00;99410.13;5043980;27;130031;-74
2022/06/30 02:42:50;;;;;;;16.13;14.32;;;17.70;99.90;;;18.51;100.00;99411.09;5042271;27;118682;-74
2022/06/30 02:45:18;;;;;;;15.20;12.63;;;17.80;99.90;;;18.56;100.00;99413.56;5061194;27;116167;-74
2022/06/30 02:47:47;;;;;;;16.33;14.15;;;17.90;99.90;;;18.65;100.00;99410.53;5041665;27;129973;-74
2022/06/30 02:50:15;;;;;;;16.13;14.43;;;17.90;99.90;;;18.65;100.00;99414.13;5040616;27;130530;-74
2022/06/30 02:52:44;;;;;;;15.63;13.98;;;18.00;99.90;;;18.67;100.00;99413.75;5044358;27;117729;-74
2022/06/30 02:55:13;;;;;;;16.67;13.43;;;18.00;99.90;;;18.60;100.00;99425.41;5042042;27;115602;-74
2022/06/30 02:57:43;;;;;;;16.15;14.07;;;17.90;99.90;;;18.74;100.00;99426.81;5042322;27;130286;-74
2022/06/30 03:00:14;;;;;;;15.23;13.63;;;18.00;99.90;;;19.11;100.00;99421.50;5059137;27;130453;-74
2022/06/30 03:02:43;;;;;;;14.50;13.00;;;18.20;99.90;;;19.17;100.00;99413.72;5064231;27;117655;-74
2022/06/30 03:05:12;;;;;;;14.70;12.90;;;18.30;99.90;;;19.52;100.00;99423.63;5062178;27;116280;-74
2022/06/30 03:07:40;;;;;;;15.48;12.05;;;18.50;99.90;;;20.50;100.00;99419.97;5063516;27;131651;-74
2022/06/30 03:10:10;;;;;;;13.35;11.55;;;19.20;99.90;;;21.50;100.00;99422.66;5061781;27;129885;-74
2022/06/30 03:12:39;;;;;;;11.45;10.27;;;19.70;99.90;;;22.43;96.77;99424.94;5062051;27;118696;-75
2022/06/30 03:15:11;;;;;;;13.02;10.30;;;20.20;1.00;;;23.05;90.25;99432.03;5062319;27;116043;-75
2022/06/30 03:17:40;;;;;;;11.43;10.32;;;20.60;1.00;;;23.67;85.10;99433.47;5062749;27;129944;-75
2022/06/30 03:20:10;;;;;;;10.60;9.50;;;20.70;1.00;;;24.15;81.30;99434.03;5060781;27;130310;-74
2022/06/30 03:22:38;;;;;;;11.30;10.20;;;20.90;1.00;;;24.45;80.16;99435.41;5080887;27;118418;-74
2022/06/30 03:25:08;;;;;;;10.48;9.48;;;21.00;1.00;;;24.89;78.31;99436.69;5060661;27;115737;-74
2022/06/30 03:27:37;;;;;;;10.32;9.32;;;21.20;1.00;;;24.70;77.50;99441.59;5061683;27;130877;-75
2022/06/30 03:30:07;;;;;;;11.25;10.15;;;21.30;1.00;;;24.13;79.94;99444.75;5061653;27;129594;-75
2022/06/30 03:32:37;;;;;;;12.75;11.43;;;20.90;1.00;;;23.57;82.32;99439.81;5061811;27;118798;-73
2022/06/30 03:35:08;;;;;;;12.32;11.02;;;20.50;1.00;;;23.19;85.03;99441.50;5062318;27;116195;-74
2022/06/30 03:37:36;;;;;;;12.35;11.00;;;20.30;1.00;;;22.46;89.34;99443.50;5061455;27;130135;-75
2022/06/30 03:40:07;;;;;;;13.45;11.20;;;20.00;1.00;;;22.32;91.03;99447.03;5061245;27;129832;-73
2022/06/30 03:42:36;;;;;;;14.15;12.35;;;20.00;1.00;;;22.16;92.08;99444.59;5061829;27;119162;-72
2022/06/30 03:45:05;;;;;;;12.30;11.10;;;20.00;1.00;;;22.20;92.90;99439.06;5061734;27;116297;-74
2022/06/30 03:47:33;;;;;;;13.45;12.00;;;20.20;1.00;;;22.00;94.03;99444.16;5061207;27;130456;-74
2022/06/30 03:50:04;;;;;;;12.98;11.68;;;20.00;1.00;;;21.79;95.05;99448.44;5062199;27;129478;-75
2022/06/30 03:52:33;;;;;;;13.60;11.52;;;20.00;1.00;;;21.90;96.45;99446.50;5064314;27;119276;-72
2022/06/30 03:55:01;;;;;;;13.38;11.73;;;20.30;1.00;;;22.15;95.77;99445.78;5063887;27;116325;-73
2022/06/30 03:57:30;;;;;;;13.38;11.57;;;20.50;1.00;;;22.24;94.20;99446.19;5063452;27;130809;-73
2022/06/30 03:59:59;;;;;;;12.48;11.18;;;20.60;1.00;;;22.35;93.33;99451.78;5061065;27;129988;-72
2022/06/30 04:02:28;;;;;;;12.98;11.13;;;20.70;1.00;;;22.24;92.91;99454.47;5061187;27;119456;-73
2022/06/30 04:04:56;;;;;;;13.45;12.05;;;20.60;1.00;;;22.10;94.17;99451.69;5063561;27;115444;-72
2022/06/30 04:07:26;;;;;;;13.02;10.98;;;20.60;1.00;;;21.95;95.25;99455.59;5061164;27;130108;-72
2022/06/30 04:09:55;;;;;;;13.38;11.35;;;20.50;1.00;;;21.90;95.66;99443.72;5060825;27;129443;-73
2022/06/30 04:12:24;;;;;;;12.70;10.77;;;20.50;1.00;;;22.13;95.67;99442.63;5060240;27;119157;-73
2022/06/30 04:14:53;;;;;;;15.43;11.43;;;20.80;1.00;;;22.35;94.17;99437.94;5061425;27;116208;-74
2022/06/30 04:17:21;;;;;;;22.05;15.18;;;20.90;1.00;;;22.65;91.17;99436.00;5060786;27;130463;-72
2022/06/30 04:19:50;;;;;;;12.88;11.57;;;21.10;1.00;;;22.51;91.66;99437.56;5060983;27;129516;-73
2022/06/30 04:22:18;;;;;;;17.67;12.80;;;21.00;1.00;;;22.33;93.16;99445.03;5061339;27;118873;-75
2022/06/30 04:24:49;;;;;;;13.75;11.55;;;20.90;1.00;;;22.22;94.11;99437.50;5061326;27;116185;-75
2022/06/30 04:27:18;;;;;;;19.80;12.88;;;20.80;1.00;;;22.47;93.54;99445.09;5060853;27;130565;-75
2022/06/30 04:29:46;;;;;;;16.38;12.13;;;21.10;1.00;;;22.38;93.02;99447.44;5061086;27;129680;-76
2022/06/30 04:35:00;;;;;;;12.85;11.30;;;21.00;1.00;;;22.48;92.24;99443.88;5056210;27;115831;-75
2022/06/30 04:37:29;;;;;;;12.50;11.20;;;21.10;1.00;;;22.49;91.66;99455.75;5051694;27;129941;-76
2022/06/30 04:42:45;;;;;;;14.27;11.10;;;21.20;1.00;;;22.67;91.36;99447.44;5049539;27;118957;-75
2022/06/30 04:45:13;;;;;;;13.10;10.68;;;21.30;1.00;;;22.83;90.08;99447.84;5048432;27;116023;-79
2022/06/30 04:47:42;;;;;;;11.68;9.98;;;21.30;1.00;;;22.87;90.81;99448.63;5066398;27;128835;-76
2022/06/30 04:50:12;;;;;;;12.20;9.82;;;21.40;1.00;;;23.21;90.31;99456.53;5064558;27;129593;-77
2022/06/30 04:52:40;;;;;;;26.13;15.02;;;21.70;1.00;;;23.45;87.98;99454.09;5064870;27;119280;-79
2022/06/30 04:55:11;;;;;;;12.10;9.73;;;21.80;1.00;;;23.69;85.83;99455.22;5064569;27;115886;-75
2022/06/30 04:57:40;;;;;;;11.57;10.30;;;21.90;1.00;;;23.86;84.16;99461.91;5063666;27;129819;-77
2022/06/30 05:00:10;;;;;;;11.73;10.13;;;22.00;1.00;;;24.03;82.91;99461.03;5063062;27;129474;-78
2022/06/30 05:02:38;;;;;;;11.98;10.48;;;22.10;1.00;;;23.90;82.69;99457.13;5064679;27;119375;-77
2022/06/30 05:05:09;;;;;;;11.07;9.88;;;22.00;1.00;;;23.82;82.70;99458.31;5063540;27;115842;-75
2022/06/30 05:07:38;;;;;;;10.63;9.52;;;22.00;99.90;;;23.76;83.52;99451.63;5066007;27;129489;-76
2022/06/30 05:10:09;;;;;;;13.30;9.77;;;22.00;1.00;;;23.86;83.31;99459.91;5054162;27;129372;-78
2022/06/30 05:12:38;;;;;;;14.07;11.82;;;22.10;99.90;;;23.83;83.59;99465.44;5045606;27;118134;-76
2022/06/30 05:15:08;;;;;;;11.80;10.60;;;22.10;99.90;;;23.51;84.17;99469.91;5051270;27;116667;-75
2022/06/30 05:17:36;;;;;;;11.77;9.68;;;22.00;99.90;;;23.41;84.21;99475.47;5062225;27;130268;-72
2022/06/30 05:20:07;;;;;;;15.73;11.82;;;21.90;99.90;;;23.63;84.01;99465.91;5064238;27;129296;-75
2022/06/30 05:22:36;;;;;;;11.15;9.95;;;22.10;99.90;;;23.39;84.09;99466.78;5063482;27;119362;-74
2022/06/30 05:27:53;;;;;;;21.92;14.27;;;22.00;99.90;;;23.96;82.89;99472.13;5046514;27;130793;-79
2022/06/30 05:30:22;;;;;;;16.95;10.57;;;22.50;99.90;;;24.30;82.00;99474.34;5077262;27;128850;-76
2022/06/30 05:32:51;;;;;;;12.00;9.75;;;22.70;99.90;;;24.23;79.88;99474.38;5063950;27;118726;-78
2022/06/30 05:35:19;;;;;;;11.60;10.40;;;22.60;99.90;;;24.03;82.15;99468.56;5063000;27;115281;-74
2022/06/30 05:37:48;;;;;;;10.55;9.45;;;22.40;99.90;;;23.97;80.99;99478.47;5062100;27;130221;-75
2022/06/30 05:40:16;;;;;;;14.40;11.30;;;22.40;99.90;;;24.08;82.14;99470.13;5063470;27;129415;-74
2022/06/30 05:42:45;;;;;;;12.27;10.93;;;22.60;99.90;;;24.44;81.03;99467.13;5061710;27;120209;-75
2022/06/30 05:45:15;;;;;;;13.02;10.05;;;22.80;99.90;;;24.70;79.89;99472.13;5063034;27;119913;-76
2022/06/30 05:47:47;;;;;;;11.15;9.80;;;23.00;99.90;;;24.82;78.53;99464.47;5062652;27;130275;-77
2022/06/30 05:50:16;;;;;;;10.77;9.50;;;23.00;99.90;;;24.83;77.65;99472.41;5044740;27;129981;-78
2022/06/30 05:52:45;;;;;;;11.13;9.98;;;23.10;99.90;;;24.38;80.26;99464.00;5058301;27;122402;-76
2022/06/30 05:55:14;;;;;;;11.13;9.93;;;22.90;99.90;;;24.02;81.55;99464.19;5062247;27;122193;-73
2022/06/30 05:57:52;;;;;;;10.88;9.77;;;22.70;99.90;;;24.06;81.15;99476.06;5065010;27;130637;-76
2022/06/30 06:00:23;;;;;;;10.98;9.88;;;22.80;99.90;;;24.29;80.41;99469.19;5061613;27;129424;-78
2022/06/30 06:02:53;;;;;;;10.88;9.43;;;22.90;99.90;;;24.30;79.87;99474.34;5062792;27;119839;-75
2022/06/30 06:05:22;;;;;;;11.52;10.32;;;23.00;99.90;;;24.83;78.89;99469.63;5062457;27;119700;-77
2022/06/30 06:07:51;;;;;;;14.05;10.05;;;23.30;99.90;;;25.03;76.99;99469.06;5063447;27;129636;-76
2022/06/30 06:10:21;;;;;;;12.73;9.88;;;23.50;99.90;;;25.36;75.83;99470.34;5059383;27;129909;-77
2022/06/30 06:12:50;;;;;;;11.50;10.27;;;23.60;99.90;;;25.46;74.30;99477.78;5061901;27;119913;-77
2022/06/30 06:15:18;;;;;;;11.27;9.73;;;23.60;99.90;;;25.21;75.38;99480.00;5058906;27;119463;-77
2022/06/30 06:17:49;;;;;;;12.50;9.55;;;23.40;99.90;;;25.50;74.13;99479.75;5060245;27;130995;-74
2022/06/30 06:20:19;;;;;;;11.30;8.85;;;23.50;99.90;;;25.62;74.42;99481.97;5059555;27;130398;-74
2022/06/30 06:22:48;;;;;;;10.93;9.02;;;23.70;99.90;;;25.63;71.49;99477.97;5061974;27;120274;-78
2022/06/30 06:25:17;;;;;;;9.38;8.38;;;23.80;99.90;;;25.68;70.67;99480.31;5044019;27;119321;-77
2022/06/30 06:29:05;;;;;;;9.43;8.43;;;23.80;99.90;;;25.54;73.05;99474.91;5049147;27;130304;-76
2022/06/30 06:30:36;;;;;;;16.35;8.85;;;23.80;99.90;;;25.84;71.43;99477.72;5061791;27;130004;-79
2022/06/30 06:33:06;;;;;;;9.68;8.68;;;24.10;99.90;;;25.75;70.72;99474.66;5059496;27;119710;-76
2022/06/30 06:35:34;;;;;;;11.90;9.07;;;23.90;99.90;;;25.71;71.09;99479.50;5061791;27;119614;-79
2022/06/30 06:38:03;;;;;;;11.25;8.32;;;23.90;99.90;;;25.75;72.14;99480.22;5062899;27;131495;-77
2022/06/30 06:40:32;;;;;;;11.38;8.80;;;24.10;99.90;;;25.90;70.88;99469.72;5060967;27;129632;-76
2022/06/30 06:43:01;;;;;;;11.98;8.57;;;24.20;99.90;;;25.80;70.95;99482.56;5062379;27;121221;-77
2022/06/30 06:45:29;;;;;;;12.57;8.55;;;24.10;99.90;;;25.88;71.80;99482.47;5061277;27;124539;-78
2022/06/30 06:47:58;;;;;;;11.95;8.82;;;24.30;99.90;;;26.11;70.16;99485.34;5060575;27;130095;-76
2022/06/30 06:50:29;;;;;;;11.30;8.35;;;24.50;99.90;;;26.06;70.08;99482.28;5046054;27;129107;-77
2022/06/30 06:52:58;;;;;;;9.15;7.70;;;24.50;99.90;;;26.04;68.78;99488.25;5061248;27;120284;-76
2022/06/30 06:55:27;;;;;;;9.70;7.60;;;24.50;99.90;;;25.96;67.95;99483.94;5061457;27;119273;-77
2022/06/30 06:57:56;;;;;;;8.57;7.47;;;24.50;99.90;;;26.03;67.78;99483.09;5061939;27;130524;-72
2022/06/30 07:00:25;;;;;;;10.65;7.70;;;24.50;99.90;;;26.43;67.08;99484.13;5061640;27;129689;-75
2022/06/30 07:02:54;;;;;;;9.15;7.50;;;24.70;99.90;;;26.74;66.46;99492.44;5063341;27;119926;-76
2022/06/30 07:05:22;;;;;;;10.20;7.82;;;24.90;99.90;;;26.80;66.84;99482.41;5061144;27;120027;-79
2022/06/30 07:07:59;;;;;;;9.45;7.70;;;25.00;99.90;;;26.80;66.16;99487.16;5059510;27;130379;-77
2022/06/30 07:10:29;;;;;;;9.60;7.30;;;25.00;99.90;;;26.62;66.03;99479.84;5054261;27;130111;-78
2022/06/30 07:12:58;;;;;;;8.80;6.78;;;25.00;99.90;;;26.26;66.39;99485.97;5040765;27;120771;-77
2022/06/30 07:15:26;;;;;;;7.25;6.47;;;24.80;99.90;;;26.02;65.56;99482.28;5040604;27;119909;-78
2022/06/30 07:17:55;;;;;;;8.07;6.93;;;24.70;99.90;;;26.22;65.72;99490.00;5040304;27;130271;-77
2022/06/30 07:20:24;;;;;;;8.23;7.07;;;24.80;99.90;;;26.47;65.24;99486.84;5040216;27;129466;-75
2022/06/30 07:22:52;;;;;;;7.63;6.43;;;24.90;99.90;;;26.60;64.38;99498.97;5040538;27;120821;-76
2022/06/30 07:25:22;;;;;;;9.15;7.00;;;25.00;99.90;;;26.91;63.77;99501.69;5041033;27;119406;-75
2022/06/30 07:27:51;;;;;;;8.50;6.43;;;25.10;99.90;;;26.96;61.33;99503.19;5040434;27;129770;-77
2022/06/30 07:30:19;;;;;;;7.40;6.35;;;25.10;99.90;;;26.74;62.67;99495.22;5041816;27;129539;-75
2022/06/30 07:32:48;;;;;;;8.55;6.78;;;25.10;99.90;;;26.84;60.98;99501.81;5039307;27;122030;-77
2022/06/30 07:35:16;;;;;;;9.55;5.85;;;25.10;99.90;;;26.81;61.45;99495.09;5040356;27;122212;-78
2022/06/30 07:37:45;;;;;;;6.82;6.13;;;25.20;99.90;;;26.55;60.21;99491.91;5041863;27;129716;-80
2022/06/30 07:40:15;;;;;;;7.72;5.78;;;25.10;99.90;;;26.75;61.00;99504.34;5040032;27;129963;-79
2022/06/30 07:42:45;;;;;;;9.27;5.65;;;25.20;99.90;;;26.89;59.94;99504.88;5040500;27;119732;-78
2022/06/30 07:45:13;;;;;;;9.35;5.90;;;25.40;99.90;;;26.66;61.27;99496.53;5040159;27;120123;-77
2022/06/30 07:47:46;;;;;;;7.43;5.57;;;25.20;99.90;;;26.96;59.93;99503.19;5039543;27;130362;-76
2022/06/30 07:50:16;;;;;;;8.43;6.70;;;25.30;99.90;;;27.25;59.76;99492.34;5042047;27;129475;-75
2022/06/30 07:52:45;;;;;;;8.00;6.40;;;25.50;99.90;;;27.24;59.46;99497.16;5042264;27;118466;-77
2022/06/30 07:55:14;;;;;;;9.55;6.47;;;25.50;99.90;;;26.82;60.53;99499.47;5040139;27;119550;-74
2022/06/30 07:57:47;;;;;;;9.00;6.43;;;25.30;99.90;;;26.80;61.48;99501.88;5040000;27;128905;-79
2022/06/30 08:00:18;;;;;;;9.38;6.53;;;25.20;99.90;;;27.02;60.91;99495.94;5040267;27;129312;-78
2022/06/30 08:02:47;;;;;;;8.95;6.47;;;25.50;99.90;;;26.82;61.27;99505.03;5039966;27;120570;-79
2022/06/30 08:05:15;;;;;;;10.82;7.40;;;25.50;99.90;;;27.13;60.93;99496.56;5039243;27;119126;-77
2022/06/30 08:07:44;;;;;;;8.60;6.43;;;25.70;99.90;;;26.97;61.42;99504.78;5039523;27;130740;-76
2022/06/30 08:10:13;;;;;;;9.43;6.45;;;25.60;99.90;;;26.95;60.42;99510.00;5039563;27;129711;-77
2022/06/30 08:12:42;;;;;;;9.45;6.72;;;25.70;99.90;;;27.21;61.24;99503.56;5041907;27;118658;-79
2022/06/30 08:15:13;;;;;;;7.50;6.35;;;25.90;99.90;;;27.27;61.46;99495.53;5042103;27;119093;-77
2022/06/30 08:17:42;;;;;;;9.75;7.05;;;26.00;99.90;;;27.13;61.28;99496.56;5039389;27;130319;-77
2022/06/30 08:20:11;;;;;;;7.30;6.30;;;25.90;99.90;;;27.59;61.82;99494.91;5041616;27;129066;-76
2022/06/30 08:22:40;;;;;;;8.98;6.50;;;26.30;99.90;;;28.03;58.78;99488.50;5038576;27;122140;-76
2022/06/30 08:25:10;;;;;;;9.13;6.22;;;26.40;99.90;;;28.42;57.57;99492.44;5039604;27;122546;-76
2022/06/30 08:27:38;;;;;;;8.43;5.78;;;26.60;99.90;;;28.47;54.62;99500.28;5039325;27;129869;-78
2022/06/30 08:30:09;;;;;;;7.28;5.65;;;26.80;99.90;;;28.07;55.24;99500.38;5039547;27;129484;-75
2022/06/30 08:32:40;;;;;;;8.52;5.43;;;26.60;99.90;;;27.79;55.85;99485.78;5040445;27;118928;-77
2022/06/30 08:35:09;;;;;;;6.80;5.55;;;26.40;99.90;;;27.79;55.83;99494.16;5039681;27;118968;-77
2022/06/30 08:37:38;;;;;;;10.18;5.68;;;26.40;99.90;;;27.57;56.80;99491.78;5032924;27;129241;-78
2022/06/30 08:42:54;;;;;;;9.63;6.13;;;26.30;99.90;;;27.79;57.28;99496.94;5060886;27;120057;-79
2022/06/30 08:45:25;;;;;;;10.05;6.45;;;26.60;99.90;;;28.49;55.69;99497.84;5061296;27;119503;-78
2022/06/30 08:47:55;;;;;;;9.75;6.10;;;27.00;99.90;;;28.91;54.83;99506.44;5059495;27;129675;-77
2022/06/30 08:50:24;;;;;;;7.93;6.45;;;27.30;99.90;;;28.93;54.25;99492.03;5059447;27;130468;-75
2022/06/30 08:52:55;;;;;;;8.15;6.57;;;27.20;99.90;;;28.91;54.16;99505.66;5059507;27;119624;-74
2022/06/30 08:55:26;;;;;;;9.73;6.28;;;27.20;99.90;;;28.38;55.73;99502.91;5058553;27;120626;-77
2022/06/30 08:58:02;;;;;;;10.45;6.63;;;26.90;99.90;;;28.50;55.28;99505.00;5060437;27;129944;-78
2022/06/30 09:00:31;;;;;;;8.48;6.22;;;26.80;99.90;;;28.90;53.81;99516.03;5060509;27;129444;-76
2022/06/30 09:03:02;;;;;;;9.98;6.82;;;27.00;99.90;;;28.48;55.76;99508.22;5061659;27;119184;-77
2022/06/30 09:05:31;;;;;;;9.27;6.50;;;26.90;99.90;;;28.45;55.27;99497.13;5060105;27;120228;-78
2022/06/30 09:08:00;;;;;;;10.25;7.03;;;26.80;99.90;;;28.95;55.76;99506.34;5061365;27;129824;-76
2022/06/30 09:10:30;;;;;;;8.32;7.18;;;27.10;99.90;;;29.31;53.54;99506.25;5058085;27;129666;-78
2022/06/30 09:13:00;;;;;;;8.52;6.55;;;27.20;99.90;;;29.67;52.41;99510.88;5060443;27;121586;-77
2022/06/30 09:15:31;;;;;;;9.02;7.03;;;27.50;99.90;;;29.93;52.52;99508.97;5059786;27;121653;-78
2022/06/30 09:18:01;;;;;;;8.50;7.05;;;27.60;99.90;;;30.36;50.68;99504.09;5060951;27;129608;-77
2022/06/30 09:20:36;;;;;;;8.27;6.88;;;28.00;99.90;;;30.50;50.58;99507.72;5062782;27;129386;-76
2022/06/30 09:23:21;;;;;;;7.97;6.80;;;27.80;99.90;;;30.46;51.09;99508.59;5064766;27;119226;-75
2022/06/30 09:25:52;;;;;;;7.75;6.82;;;27.90;99.90;;;30.62;49.56;99516.09;5063538;27;119413;-77
2022/06/30 09:28:43;;;;;;;9.70;6.45;;;27.60;99.90;;;30.92;48.33;99508.31;5064903;27;129908;-75
2022/06/30 09:31:14;;;;;;;7.90;6.88;;;28.00;99.90;;;30.85;49.50;99502.19;5063256;27;130306;-75
2022/06/30 09:33:47;;;;;;;8.50;7.15;;;28.00;99.90;;;30.53;48.59;99512.41;5062775;27;119432;-75
2022/06/30 09:36:24;;;;;;;7.70;6.82;;;28.00;99.90;;;30.32;51.76;99503.41;5063188;27;119573;-78
2022/06/30 09:39:06;;;;;;;9.77;6.30;;;28.10;99.90;;;30.69;48.90;99498.28;5061365;27;130187;-77
2022/06/30 09:41:38;;;;;;;7.47;6.35;;;28.10;99.90;;;30.90;48.81;99501.59;5047313;27;128491;-75
2022/06/30 09:44:07;;;;;;;7.35;6.03;;;28.30;99.90;;;31.04;48.39;99501.16;5064550;27;119745;-80
2022/06/30 09:46:36;;;;;;;8.60;6.30;;;28.40;99.90;;;31.26;48.56;99494.81;5047176;27;119054;-76
2022/06/30 09:49:09;;;;;;;9.63;6.63;;;28.70;99.90;;;31.63;46.44;99506.34;5076252;27;130017;-76
2022/06/30 09:51:42;;;;;;;8.13;6.28;;;28.90;99.90;;;31.78;46.82;99489.78;5062096;27;129907;-75
2022/06/30 09:54:12;;;;;;;7.43;6.60;;;29.10;99.90;;;32.06;46.48;99493.53;5047275;27;119153;-75
2022/06/30 09:56:40;;;;;;;7.88;6.43;;;29.10;99.90;;;31.83;46.60;99489.97;5061453;27;119512;-75
2022/06/30 09:59:09;;;;;;;10.13;6.25;;;29.10;99.90;;;31.95;46.67;99481.94;5063655;27;129630;-74
2022/06/30 10:01:54;;;;;;;10.25;6.15;;;29.20;99.90;;;31.86;46.60;99479.84;5060937;27;129717;-73
2022/06/30 10:04:24;;;;;;;8.10;6.40;;;29.20;99.90;;;32.25;43.74;99489.59;5062351;27;121839;-75
2022/06/30 10:06:55;;;;;;;7.22;6.00;;;29.20;99.90;;;32.35;44.67;99486.81;5062269;27;121832;-72
2022/06/30 10:09:23;;;;;;;6.93;6.00;;;29.30;99.90;;;32.61;45.10;99481.75;5061673;27;130698;-74
2022/06/30 10:11:55;;;;;;;6.85;5.68;;;29.60;99.90;;;32.17;45.45;99477.09;5061749;27;129411;-73
2022/06/30 10:14:29;;;;;;;7.95;6.07;;;29.20;99.90;;;31.92;45.84;99482.88;5064194;27;118915;-74
2022/06/30 10:16:57;;;;;;;7.95;5.50;;;29.00;99.90;;;31.49;43.68;99471.97;5062234;27;119509;-70
2022/06/30 10:19:27;;;;;;;8.50;6.07;;;28.60;97.40;;;31.49;46.05;99476.78;5061770;27;129980;-71
2022/06/30 10:21:57;;;;;;;10.35;5.93;;;28.90;99.90;;;31.03;45.33;99482.00;5063564;27;128997;-75
2022/06/30 10:24:26;;;;;;;8.93;5.75;;;28.50;98.40;;;31.39;43.61;99475.94;5064910;27;119687;-74
2022/06/30 10:27:14;;;;;;;7.82;6.38;;;28.80;95.70;;;31.54;45.32;99468.59;5061827;27;119288;-78
2022/06/30 10:29:51;;;;;;;8.00;5.88;;;29.10;99.40;;;31.64;44.40;99480.66;5060158;27;129812;-75
2022/06/30 10:32:52;;;;;;;8.85;5.68;;;29.10;99.30;;;31.74;45.39;99478.69;5061808;27;130193;-76
2022/06/30 10:35:33;;;;;;;6.88;5.82;;;29.20;99.90;;;31.64;43.98;99474.28;5079107;27;120055;-74